WXM80 ListenWXM80 Stop

You find our weather info also at:

UK Metoffice

WeatherCloud

Weather Underground

Northeastern Weather Network

AWEKAS

Citizen Weather Observer Program (CWOP)

HAMweather, WeatherForYou, PWS Weather


Weather Underground History page Text

Daily Summary for January 13, 2018 Units:  Both    English   Metric
« Previous Day
Next Day »
Daily Weekly Monthly Yearly Custom
  High: Low: Average:
Temperature: 59.6 °F /  15.3 °C 20.8 °F /  -6.2 °C 38.5 °F /  3.6 °C
Dew Point: 59.0 °F /  15 °C 7.6 °F /  -13.6 °C 33.1 °F /  0.6 °C
Humidity: 98 % 56 % 81 %
Wind Speed: 15.9 mph /  25.6 km/h - 7.1 mph /  11.4 km/h
Wind Gust: 32.2 mph /  51.8 km/h - -
Wind:- - WSW
Pressure: 30.14 in /  1020.5 hPa 29.09 in /  985 hPa -
Precipitation: 0.14 in /  3.56 mm    
Historical Graphs
 
 
Tabular Data for January 13, 2018
Time Temperature Dew Point Pressure Wind Wind Speed Wind Gust Humidity Rainfall Rate (Hourly)
00:04 59.6 °F /  15.3 °C 59.0 °F /  15 °C 29.30 in /  992.1 hPa South 9.5 mph /  15.3 km/h 16.1 mph /  25.9 km/h 98 % 0.01 in /  0.25 mm
00:10 59.4 °F /  15.2 °C 58.8 °F /  14.9 °C 29.30 in /  992.1 hPa South 9.0 mph /  14.5 km/h 16.1 mph /  25.9 km/h 98 % 0.01 in /  0.25 mm
00:18 59.2 °F /  15.1 °C 58.6 °F /  14.8 °C 29.30 in /  992.1 hPa WSW 6.7 mph /  10.8 km/h 19.6 mph /  31.5 km/h 98 % 0.02 in /  0.51 mm
00:30 58.7 °F /  14.8 °C 58.1 °F /  14.5 °C 29.29 in /  991.8 hPa South 8.5 mph /  13.7 km/h 13.8 mph /  22.2 km/h 98 % 0.03 in /  0.76 mm
00:36 58.4 °F /  14.7 °C 57.8 °F /  14.3 °C 29.28 in /  991.4 hPa SSW 8.0 mph /  12.9 km/h 20.0 mph /  32.2 km/h 98 % 0.00 in /  0 mm
00:49 58.2 °F /  14.6 °C 57.6 °F /  14.2 °C 29.28 in /  991.4 hPa South 7.2 mph /  11.6 km/h 12.7 mph /  20.4 km/h 98 % 0.03 in /  0.76 mm
01:00 58.4 °F /  14.7 °C 57.8 °F /  14.3 °C 29.29 in /  991.8 hPa South 4.3 mph /  6.9 km/h 11.0 mph /  17.7 km/h 98 % 0.02 in /  0.51 mm
01:14 58.5 °F /  14.7 °C 57.9 °F /  14.4 °C 29.29 in /  991.8 hPa SSE 8.9 mph /  14.3 km/h 16.1 mph /  25.9 km/h 98 % 0.02 in /  0.51 mm
01:21 58.6 °F /  14.8 °C 58.0 °F /  14.4 °C 29.27 in /  991.1 hPa SSW 7.3 mph /  11.7 km/h 12.7 mph /  20.4 km/h 98 % 0.01 in /  0.25 mm
01:32 58.5 °F /  14.7 °C 57.9 °F /  14.4 °C 29.29 in /  991.8 hPa SSW 7.2 mph /  11.6 km/h 13.8 mph /  22.2 km/h 98 % 0.00 in /  0 mm
01:52 57.8 °F /  14.3 °C 57.2 °F /  14 °C 29.26 in /  990.7 hPa South 6.1 mph /  9.8 km/h 10.4 mph /  16.7 km/h 98 % 0.00 in /  0 mm
02:10 57.5 °F /  14.2 °C 56.9 °F /  13.8 °C 29.25 in /  990.4 hPa SSW 6.7 mph /  10.8 km/h 16.1 mph /  25.9 km/h 98 % 0.00 in /  0 mm
02:26 57.5 °F /  14.2 °C 56.9 °F /  13.8 °C 29.23 in /  989.7 hPa SW 5.9 mph /  9.5 km/h 10.4 mph /  16.7 km/h 98 % 0.00 in /  0 mm
02:37 57.6 °F /  14.2 °C 57.0 °F /  13.9 °C 29.22 in /  989.4 hPa South 6.6 mph /  10.6 km/h 11.5 mph /  18.5 km/h 98 % 0.00 in /  0 mm
02:42 57.6 °F /  14.2 °C 57.0 °F /  13.9 °C 29.21 in /  989.1 hPa West 5.6 mph /  9 km/h 12.7 mph /  20.4 km/h 98 % 0.00 in /  0 mm
02:48 57.4 °F /  14.1 °C 56.8 °F /  13.8 °C 29.21 in /  989.1 hPa South 10.9 mph /  17.5 km/h 19.6 mph /  31.5 km/h 98 % 0.00 in /  0 mm
02:56 57.2 °F /  14 °C 56.6 °F /  13.7 °C 29.21 in /  989.1 hPa South 7.6 mph /  12.2 km/h 16.1 mph /  25.9 km/h 98 % 0.00 in /  0 mm
03:05 57.1 °F /  13.9 °C 56.5 °F /  13.6 °C 29.20 in /  988.7 hPa SSW 6.4 mph /  10.3 km/h 11.5 mph /  18.5 km/h 98 % 0.00 in /  0 mm
03:10 57.1 °F /  13.9 °C 56.5 °F /  13.6 °C 29.20 in /  988.7 hPa South 6.0 mph /  9.7 km/h 11.5 mph /  18.5 km/h 98 % 0.00 in /  0 mm
03:19 56.9 °F /  13.8 °C 56.3 °F /  13.5 °C 29.19 in /  988.4 hPa SSW 5.0 mph /  8 km/h 11.5 mph /  18.5 km/h 98 % 0.00 in /  0 mm
03:24 56.6 °F /  13.7 °C 56.0 °F /  13.3 °C 29.20 in /  988.7 hPa South 7.5 mph /  12.1 km/h 13.8 mph /  22.2 km/h 98 % 0.01 in /  0.25 mm
03:46 55.6 °F /  13.1 °C 55.0 °F /  12.8 °C 29.17 in /  987.7 hPa South 8.3 mph /  13.4 km/h 12.7 mph /  20.4 km/h 98 % 0.10 in /  2.54 mm
03:51 55.5 °F /  13.1 °C 54.9 °F /  12.7 °C 29.16 in /  987.4 hPa SSW 7.7 mph /  12.4 km/h 13.8 mph /  22.2 km/h 98 % 0.10 in /  2.54 mm
03:58 55.5 °F /  13.1 °C 54.9 °F /  12.7 °C 29.15 in /  987 hPa SSW 8.3 mph /  13.4 km/h 19.0 mph /  30.6 km/h 98 % 0.11 in /  2.79 mm
04:04 55.8 °F /  13.2 °C 55.2 °F /  12.9 °C 29.10 in /  985.3 hPa South 9.1 mph /  14.6 km/h 17.3 mph /  27.8 km/h 98 % 0.12 in /  3.05 mm
04:10 56.3 °F /  13.5 °C 55.7 °F /  13.2 °C 29.09 in /  985 hPa SSE 4.0 mph /  6.4 km/h 11.0 mph /  17.7 km/h 98 % 0.12 in /  3.05 mm
04:18 56.9 °F /  13.8 °C 56.3 °F /  13.5 °C 29.09 in /  985 hPa South 7.6 mph /  12.2 km/h 18.4 mph /  29.6 km/h 98 % 0.12 in /  3.05 mm
04:27 56.9 °F /  13.8 °C 56.3 °F /  13.5 °C 29.09 in /  985 hPa SSE 5.1 mph /  8.2 km/h 11.5 mph /  18.5 km/h 98 % 0.10 in /  2.54 mm
04:37 57.6 °F /  14.2 °C 57.0 °F /  13.9 °C 29.09 in /  985 hPa SSW 11.7 mph /  18.8 km/h 20.7 mph /  33.3 km/h 98 % 0.06 in /  1.52 mm
04:42 57.7 °F /  14.3 °C 57.1 °F /  13.9 °C 29.09 in /  985 hPa SSE 7.8 mph /  12.6 km/h 18.0 mph /  29 km/h 98 % 0.03 in /  0.76 mm
04:47 57.7 °F /  14.3 °C 57.1 °F /  13.9 °C 29.09 in /  985 hPa South 10.5 mph /  16.9 km/h 17.3 mph /  27.8 km/h 98 % 0.02 in /  0.51 mm
04:56 57.3 °F /  14.1 °C 56.7 °F /  13.7 °C 29.10 in /  985.3 hPa South 9.8 mph /  15.8 km/h 18.4 mph /  29.6 km/h 98 % 0.01 in /  0.25 mm
05:07 56.6 °F /  13.7 °C 56.0 °F /  13.3 °C 29.11 in /  985.7 hPa SSW 13.9 mph /  22.4 km/h 21.0 mph /  33.8 km/h 98 % 0.00 in /  0 mm
05:22 55.5 °F /  13.1 °C 54.7 °F /  12.6 °C 29.13 in /  986.3 hPa SSW 12.9 mph /  20.8 km/h 15.0 mph /  24.1 km/h 97 % 0.00 in /  0 mm
05:31 54.9 °F /  12.7 °C 54.1 °F /  12.3 °C 29.13 in /  986.3 hPa South 10.4 mph /  16.7 km/h 20.7 mph /  33.3 km/h 97 % 0.00 in /  0 mm
05:42 54.2 °F /  12.3 °C 53.4 °F /  11.9 °C 29.14 in /  986.7 hPa SSW 7.8 mph /  12.6 km/h 20.7 mph /  33.3 km/h 97 % 0.00 in /  0 mm
05:54 53.6 °F /  12 °C 52.8 °F /  11.6 °C 29.15 in /  987 hPa South 7.9 mph /  12.7 km/h 19.6 mph /  31.5 km/h 97 % 0.00 in /  0 mm
05:59 53.5 °F /  11.9 °C 52.7 °F /  11.5 °C 29.15 in /  987 hPa SSW 9.3 mph /  15 km/h 13.8 mph /  22.2 km/h 97 % 0.00 in /  0 mm
06:20 52.7 °F /  11.5 °C 51.6 °F /  10.9 °C 29.17 in /  987.7 hPa SSW 7.6 mph /  12.2 km/h 11.5 mph /  18.5 km/h 96 % 0.00 in /  0 mm
06:30 52.5 °F /  11.4 °C 51.4 °F /  10.8 °C 29.18 in /  988 hPa South 8.5 mph /  13.7 km/h 13.0 mph /  20.9 km/h 96 % 0.00 in /  0 mm
06:36 52.4 °F /  11.3 °C 51.3 °F /  10.7 °C 29.17 in /  987.7 hPa South 9.0 mph /  14.5 km/h 16.0 mph /  25.7 km/h 96 % 0.00 in /  0 mm
06:42 52.2 °F /  11.2 °C 51.1 °F /  10.6 °C 29.18 in /  988 hPa SSW 11.3 mph /  18.2 km/h 19.6 mph /  31.5 km/h 96 % 0.00 in /  0 mm
07:01 51.8 °F /  11 °C 50.7 °F /  10.4 °C 29.19 in /  988.4 hPa SSW 8.4 mph /  13.5 km/h 12.7 mph /  20.4 km/h 96 % 0.00 in /  0 mm
07:10 52.0 °F /  11.1 °C 51.2 °F /  10.7 °C 29.23 in /  989.7 hPa SW 7.5 mph /  12.1 km/h 11.5 mph /  18.5 km/h 97 % 0.00 in /  0 mm
07:15 51.9 °F /  11.1 °C 51.1 °F /  10.6 °C 29.26 in /  990.7 hPa WSW 13.8 mph /  22.2 km/h 32.2 mph /  51.8 km/h 97 % 0.00 in /  0 mm
07:23 48.7 °F /  9.3 °C 46.2 °F /  7.9 °C 29.29 in /  991.8 hPa WNW 15.9 mph /  25.6 km/h 21.9 mph /  35.2 km/h 91 % 0.00 in /  0 mm
07:31 46.3 °F /  7.9 °C 43.5 °F /  6.4 °C 29.30 in /  992.1 hPa South 8.7 mph /  14 km/h 16.1 mph /  25.9 km/h 90 % 0.00 in /  0 mm
07:39 44.8 °F /  7.1 °C 42.0 °F /  5.6 °C 29.31 in /  992.4 hPa SW 8.4 mph /  13.5 km/h 13.8 mph /  22.2 km/h 90 % 0.00 in /  0 mm
07:48 43.1 °F /  6.2 °C 40.1 °F /  4.5 °C 29.34 in /  993.5 hPa West 8.1 mph /  13 km/h 13.8 mph /  22.2 km/h 89 % 0.00 in /  0 mm
07:53 42.6 °F /  5.9 °C 39.9 °F /  4.4 °C 29.36 in /  994.1 hPa SW 7.8 mph /  12.6 km/h 15.0 mph /  24.1 km/h 90 % 0.00 in /  0 mm
08:00 41.8 °F /  5.4 °C 39.1 °F /  3.9 °C 29.36 in /  994.1 hPa WNW 4.9 mph /  7.9 km/h 8.1 mph /  13 km/h 90 % 0.00 in /  0 mm
08:07 41.4 °F /  5.2 °C 39.0 °F /  3.9 °C 29.38 in /  994.8 hPa WNW 3.8 mph /  6.1 km/h 11.5 mph /  18.5 km/h 91 % 0.00 in /  0 mm
08:16 40.8 °F /  4.9 °C 38.4 °F /  3.6 °C 29.39 in /  995.1 hPa NW 6.9 mph /  11.1 km/h 13.8 mph /  22.2 km/h 91 % 0.00 in /  0 mm
08:21 40.6 °F /  4.8 °C 37.9 °F /  3.3 °C 29.40 in /  995.5 hPa NW 4.9 mph /  7.9 km/h 10.4 mph /  16.7 km/h 90 % 0.00 in /  0 mm
08:27 40.3 °F /  4.6 °C 37.6 °F /  3.1 °C 29.41 in /  995.8 hPa SW 9.1 mph /  14.6 km/h 18.4 mph /  29.6 km/h 90 % 0.00 in /  0 mm
08:33 40.0 °F /  4.4 °C 37.3 °F /  2.9 °C 29.42 in /  996.2 hPa WNW 10.6 mph /  17.1 km/h 18.0 mph /  29 km/h 90 % 0.00 in /  0 mm
08:38 39.5 °F /  4.2 °C 36.5 °F /  2.5 °C 29.42 in /  996.2 hPa West 7.6 mph /  12.2 km/h 13.8 mph /  22.2 km/h 89 % 0.00 in /  0 mm
08:44 38.8 °F /  3.8 °C 35.6 °F /  2 °C 29.43 in /  996.5 hPa SSW 6.2 mph /  10 km/h 16.1 mph /  25.9 km/h 88 % 0.00 in /  0 mm
08:55 37.3 °F /  2.9 °C 33.8 °F /  1 °C 29.44 in /  996.8 hPa WNW 7.0 mph /  11.3 km/h 12.7 mph /  20.4 km/h 87 % 0.00 in /  0 mm
09:04 36.6 °F /  2.6 °C 33.1 °F /  0.6 °C 29.45 in /  997.2 hPa NNW 7.7 mph /  12.4 km/h 12.7 mph /  20.4 km/h 87 % 0.00 in /  0 mm
09:10 35.9 °F /  2.2 °C 32.1 °F /  0.1 °C 29.47 in /  997.9 hPa WSW 8.0 mph /  12.9 km/h 16.1 mph /  25.9 km/h 86 % 0.00 in /  0 mm
09:20 35.0 °F /  1.7 °C 30.9 °F /  -0.6 °C 29.49 in /  998.5 hPa WNW 8.6 mph /  13.8 km/h 15.0 mph /  24.1 km/h 85 % 0.00 in /  0 mm
09:25 34.5 °F /  1.4 °C 30.2 °F /  -1 °C 29.50 in /  998.9 hPa WSW 11.3 mph /  18.2 km/h 17.3 mph /  27.8 km/h 84 % 0.00 in /  0 mm
09:31 34.1 °F /  1.2 °C 29.8 °F /  -1.2 °C 29.50 in /  998.9 hPa West 3.5 mph /  5.6 km/h 11.5 mph /  18.5 km/h 84 % 0.00 in /  0 mm
09:39 33.8 °F /  1 °C 29.5 °F /  -1.4 °C 29.51 in /  999.2 hPa West 5.9 mph /  9.5 km/h 12.7 mph /  20.4 km/h 84 % 0.00 in /  0 mm
09:57 33.1 °F /  0.6 °C 28.5 °F /  -1.9 °C 29.54 in /  1000.2 hPa SW 4.8 mph /  7.7 km/h 15.0 mph /  24.1 km/h 83 % 0.00 in /  0 mm
10:06 32.9 °F /  0.5 °C 28.0 °F /  -2.2 °C 29.55 in /  1000.6 hPa WNW 7.5 mph /  12.1 km/h 16.0 mph /  25.7 km/h 82 % 0.00 in /  0 mm
10:18 32.8 °F /  0.4 °C 27.6 °F /  -2.4 °C 29.56 in /  1000.9 hPa WSW 9.0 mph /  14.5 km/h 19.6 mph /  31.5 km/h 81 % 0.00 in /  0 mm
10:27 33.0 °F /  0.6 °C 27.5 °F /  -2.5 °C 29.57 in /  1001.2 hPa WNW 6.9 mph /  11.1 km/h 12.0 mph /  19.3 km/h 80 % 0.00 in /  0 mm
10:35 33.3 °F /  0.7 °C 27.5 °F /  -2.5 °C 29.57 in /  1001.2 hPa WSW 8.6 mph /  13.8 km/h 17.3 mph /  27.8 km/h 79 % 0.00 in /  0 mm
10:43 33.4 °F /  0.8 °C 27.3 °F /  -2.6 °C 29.58 in /  1001.6 hPa WSW 7.7 mph /  12.4 km/h 17.3 mph /  27.8 km/h 78 % 0.00 in /  0 mm
10:54 33.3 °F /  0.7 °C 27.2 °F /  -2.7 °C 29.59 in /  1001.9 hPa West 8.6 mph /  13.8 km/h 13.0 mph /  20.9 km/h 78 % 0.00 in /  0 mm
11:01 33.4 °F /  0.8 °C 27.6 °F /  -2.4 °C 29.59 in /  1001.9 hPa NW 8.0 mph /  12.9 km/h 19.0 mph /  30.6 km/h 79 % 0.00 in /  0 mm
11:06 33.5 °F /  0.8 °C 28.0 °F /  -2.2 °C 29.59 in /  1001.9 hPa NW 5.9 mph /  9.5 km/h 11.5 mph /  18.5 km/h 80 % 0.00 in /  0 mm
11:11 33.7 °F /  0.9 °C 28.5 °F /  -1.9 °C 29.59 in /  1001.9 hPa NNW 6.4 mph /  10.3 km/h 13.0 mph /  20.9 km/h 81 % 0.00 in /  0 mm
11:16 33.9 °F /  1.1 °C 28.7 °F /  -1.8 °C 29.60 in /  1002.3 hPa NW 8.1 mph /  13 km/h 8.1 mph /  13 km/h 81 % 0.00 in /  0 mm
11:22 34.0 °F /  1.1 °C 28.8 °F /  -1.8 °C 29.60 in /  1002.3 hPa NNW 7.5 mph /  12.1 km/h 12.7 mph /  20.4 km/h 81 % 0.00 in /  0 mm
11:31 34.0 °F /  1.1 °C 28.5 °F /  -1.9 °C 29.61 in /  1002.6 hPa NW 7.3 mph /  11.7 km/h 11.5 mph /  18.5 km/h 80 % 0.00 in /  0 mm
11:39 33.9 °F /  1.1 °C 28.4 °F /  -2 °C 29.61 in /  1002.6 hPa WNW 5.8 mph /  9.3 km/h 9.2 mph /  14.8 km/h 80 % 0.00 in /  0 mm
11:50 33.9 °F /  1.1 °C 28.7 °F /  -1.8 °C 29.61 in /  1002.6 hPa NW 3.8 mph /  6.1 km/h 7.0 mph /  11.3 km/h 81 % 0.00 in /  0 mm
11:59 34.0 °F /  1.1 °C 29.1 °F /  -1.6 °C 29.61 in /  1002.6 hPa NW 4.7 mph /  7.6 km/h 6.9 mph /  11.1 km/h 82 % 0.00 in /  0 mm
12:05 34.0 °F /  1.1 °C 29.1 °F /  -1.6 °C 29.62 in /  1002.9 hPa NW 2.3 mph /  3.7 km/h 5.8 mph /  9.3 km/h 82 % 0.00 in /  0 mm
12:18 34.2 °F /  1.2 °C 29.0 °F /  -1.7 °C 29.64 in /  1003.6 hPa North 5.4 mph /  8.7 km/h 8.1 mph /  13 km/h 81 % 0.00 in /  0 mm
12:23 34.3 °F /  1.3 °C 28.8 °F /  -1.8 °C 29.64 in /  1003.6 hPa NW 4.5 mph /  7.2 km/h 9.2 mph /  14.8 km/h 80 % 0.00 in /  0 mm
12:31 34.5 °F /  1.4 °C 28.7 °F /  -1.8 °C 29.63 in /  1003.3 hPa WNW 5.8 mph /  9.3 km/h 10.4 mph /  16.7 km/h 79 % 0.00 in /  0 mm
12:42 34.8 °F /  1.6 °C 28.6 °F /  -1.9 °C 29.64 in /  1003.6 hPa North 4.9 mph /  7.9 km/h 13.8 mph /  22.2 km/h 78 % 0.00 in /  0 mm
12:47 35.0 °F /  1.7 °C 28.5 °F /  -1.9 °C 29.65 in /  1003.9 hPa NNW 6.2 mph /  10 km/h 15.0 mph /  24.1 km/h 77 % 0.00 in /  0 mm
12:53 35.2 °F /  1.8 °C 29.0 °F /  -1.7 °C 29.65 in /  1003.9 hPa NNE 3.4 mph /  5.5 km/h 8.1 mph /  13 km/h 78 % 0.00 in /  0 mm
12:58 35.4 °F /  1.9 °C 28.9 °F /  -1.7 °C 29.66 in /  1004.3 hPa North 6.0 mph /  9.7 km/h 9.2 mph /  14.8 km/h 77 % 0.00 in /  0 mm
13:18 35.7 °F /  2.1 °C 28.2 °F /  -2.1 °C 29.67 in /  1004.6 hPa NNW 3.4 mph /  5.5 km/h 6.9 mph /  11.1 km/h 74 % 0.00 in /  0 mm
13:25 35.8 °F /  2.1 °C 28.3 °F /  -2.1 °C 29.67 in /  1004.6 hPa WNW 6.2 mph /  10 km/h 13.8 mph /  22.2 km/h 74 % 0.00 in /  0 mm
13:33 36.0 °F /  2.2 °C 28.2 °F /  -2.1 °C 29.68 in /  1005 hPa NW 5.7 mph /  9.2 km/h 8.0 mph /  12.9 km/h 73 % 0.00 in /  0 mm
13:39 36.1 °F /  2.3 °C 27.9 °F /  -2.3 °C 29.68 in /  1005 hPa NW 5.8 mph /  9.3 km/h 9.2 mph /  14.8 km/h 72 % 0.00 in /  0 mm
13:46 36.2 °F /  2.3 °C 28.0 °F /  -2.2 °C 29.69 in /  1005.3 hPa NW 2.9 mph /  4.7 km/h 10.4 mph /  16.7 km/h 72 % 0.00 in /  0 mm
13:55 36.3 °F /  2.4 °C 28.1 °F /  -2.2 °C 29.70 in /  1005.6 hPa WNW 5.4 mph /  8.7 km/h 10.4 mph /  16.7 km/h 72 % 0.00 in /  0 mm
14:01 36.3 °F /  2.4 °C 28.1 °F /  -2.2 °C 29.71 in /  1006 hPa NNW 4.6 mph /  7.4 km/h 6.9 mph /  11.1 km/h 72 % 0.00 in /  0 mm
14:06 36.4 °F /  2.4 °C 27.9 °F /  -2.3 °C 29.71 in /  1006 hPa NNW 7.2 mph /  11.6 km/h 10.4 mph /  16.7 km/h 71 % 0.00 in /  0 mm
14:17 36.2 °F /  2.3 °C 27.4 °F /  -2.6 °C 29.73 in /  1006.7 hPa NNW 6.0 mph /  9.7 km/h 8.1 mph /  13 km/h 70 % 0.00 in /  0 mm
14:25 36.0 °F /  2.2 °C 27.2 °F /  -2.7 °C 29.73 in /  1006.7 hPa NW 3.9 mph /  6.3 km/h 8.1 mph /  13 km/h 70 % 0.00 in /  0 mm
14:31 35.8 °F /  2.1 °C 27.0 °F /  -2.8 °C 29.74 in /  1007 hPa NNW 5.0 mph /  8 km/h 9.0 mph /  14.5 km/h 70 % 0.00 in /  0 mm
14:43 35.1 °F /  1.7 °C 26.3 °F /  -3.2 °C 29.75 in /  1007.3 hPa NW 4.1 mph /  6.6 km/h 9.2 mph /  14.8 km/h 70 % 0.00 in /  0 mm
14:51 34.7 °F /  1.5 °C 25.9 °F /  -3.4 °C 29.75 in /  1007.3 hPa NNW 6.0 mph /  9.7 km/h 13.0 mph /  20.9 km/h 70 % 0.00 in /  0 mm
15:03 34.3 °F /  1.3 °C 25.9 °F /  -3.4 °C 29.76 in /  1007.7 hPa NNE 5.4 mph /  8.7 km/h 6.0 mph /  9.7 km/h 71 % 0.00 in /  0 mm
15:15 34.1 °F /  1.2 °C 26.0 °F /  -3.3 °C 29.77 in /  1008 hPa North 6.0 mph /  9.7 km/h 11.5 mph /  18.5 km/h 72 % 0.00 in /  0 mm
15:20 34.0 °F /  1.1 °C 25.9 °F /  -3.4 °C 29.77 in /  1008 hPa WNW 7.4 mph /  11.9 km/h 11.5 mph /  18.5 km/h 72 % 0.00 in /  0 mm
15:27 33.9 °F /  1.1 °C 25.5 °F /  -3.6 °C 29.78 in /  1008.4 hPa NNW 7.5 mph /  12.1 km/h 9.2 mph /  14.8 km/h 71 % 0.00 in /  0 mm
15:32 33.8 °F /  1 °C 25.4 °F /  -3.7 °C 29.78 in /  1008.4 hPa NNW 4.2 mph /  6.8 km/h 10.4 mph /  16.7 km/h 71 % 0.00 in /  0 mm
15:39 33.7 °F /  0.9 °C 26.0 °F /  -3.3 °C 29.79 in /  1008.7 hPa NNW 4.6 mph /  7.4 km/h 6.9 mph /  11.1 km/h 73 % 0.00 in /  0 mm
15:47 33.7 °F /  0.9 °C 25.6 °F /  -3.6 °C 29.80 in /  1009 hPa NNW 5.3 mph /  8.5 km/h 12.0 mph /  19.3 km/h 72 % 0.00 in /  0 mm
16:23 33.0 °F /  0.6 °C 25.0 °F /  -3.9 °C 29.83 in /  1010 hPa North 5.7 mph /  9.2 km/h 18.4 mph /  29.6 km/h 72 % 0.00 in /  0 mm
16:28 32.8 °F /  0.4 °C 24.4 °F /  -4.2 °C 29.83 in /  1010 hPa NNW 7.8 mph /  12.6 km/h 13.8 mph /  22.2 km/h 71 % 0.00 in /  0 mm
16:33 32.7 °F /  0.4 °C 24.3 °F /  -4.3 °C 29.83 in /  1010 hPa WNW 7.2 mph /  11.6 km/h 12.7 mph /  20.4 km/h 71 % 0.00 in /  0 mm
16:38 32.6 °F /  0.3 °C 24.2 °F /  -4.3 °C 29.84 in /  1010.4 hPa North 4.9 mph /  7.9 km/h 11.5 mph /  18.5 km/h 71 % 0.00 in /  0 mm
16:43 32.5 °F /  0.3 °C 24.1 °F /  -4.4 °C 29.84 in /  1010.4 hPa NNW 5.5 mph /  8.9 km/h 13.8 mph /  22.2 km/h 71 % 0.00 in /  0 mm
16:48 32.3 °F /  0.2 °C 23.9 °F /  -4.5 °C 29.84 in /  1010.4 hPa North 6.2 mph /  10 km/h 8.1 mph /  13 km/h 71 % 0.00 in /  0 mm
16:53 32.2 °F /  0.1 °C 23.8 °F /  -4.6 °C 29.85 in /  1010.7 hPa NW 4.4 mph /  7.1 km/h 8.1 mph /  13 km/h 71 % 0.00 in /  0 mm
17:10 31.7 °F /  -0.2 °C 23.7 °F /  -4.6 °C 29.87 in /  1011.4 hPa North 6.6 mph /  10.6 km/h 15.0 mph /  24.1 km/h 72 % 0.00 in /  0 mm
17:18 31.5 °F /  -0.3 °C 23.2 °F /  -4.9 °C 29.87 in /  1011.4 hPa North 5.8 mph /  9.3 km/h 11.5 mph /  18.5 km/h 71 % 0.00 in /  0 mm
17:38 31.0 °F /  -0.6 °C 22.7 °F /  -5.2 °C 29.89 in /  1012.1 hPa NNW 7.2 mph /  11.6 km/h 13.0 mph /  20.9 km/h 71 % 0.00 in /  0 mm
17:54 30.6 °F /  -0.8 °C 22.6 °F /  -5.2 °C 29.91 in /  1012.8 hPa North 7.1 mph /  11.4 km/h 13.8 mph /  22.2 km/h 72 % 0.00 in /  0 mm
18:09 30.2 °F /  -1 °C 22.3 °F /  -5.4 °C 29.92 in /  1013.1 hPa North 6.2 mph /  10 km/h 9.2 mph /  14.8 km/h 72 % 0.00 in /  0 mm
18:14 30.0 °F /  -1.1 °C 22.1 °F /  -5.5 °C 29.92 in /  1013.1 hPa NNW 8.3 mph /  13.4 km/h 11.5 mph /  18.5 km/h 72 % 0.00 in /  0 mm
18:24 29.6 °F /  -1.3 °C 20.7 °F /  -6.3 °C 29.93 in /  1013.4 hPa NW 5.4 mph /  8.7 km/h 13.8 mph /  22.2 km/h 69 % 0.00 in /  0 mm
18:30 29.4 °F /  -1.4 °C 20.8 °F /  -6.2 °C 29.94 in /  1013.8 hPa NNW 10.0 mph /  16.1 km/h 16.1 mph /  25.9 km/h 70 % 0.00 in /  0 mm
18:35 29.3 °F /  -1.5 °C 21.4 °F /  -5.9 °C 29.94 in /  1013.8 hPa North 3.0 mph /  4.8 km/h 10.4 mph /  16.7 km/h 72 % 0.00 in /  0 mm
18:44 29.0 °F /  -1.7 °C 20.8 °F /  -6.2 °C 29.94 in /  1013.8 hPa North 7.7 mph /  12.4 km/h 11.5 mph /  18.5 km/h 71 % 0.00 in /  0 mm
18:53 28.7 °F /  -1.8 °C 20.5 °F /  -6.4 °C 29.95 in /  1014.1 hPa North 7.7 mph /  12.4 km/h 11.5 mph /  18.5 km/h 71 % 0.00 in /  0 mm
18:58 28.5 °F /  -1.9 °C 20.3 °F /  -6.5 °C 29.96 in /  1014.4 hPa NNW 7.5 mph /  12.1 km/h 13.8 mph /  22.2 km/h 71 % 0.00 in /  0 mm
19:03 28.4 °F /  -2 °C 20.2 °F /  -6.6 °C 29.96 in /  1014.4 hPa NW 7.7 mph /  12.4 km/h 15.0 mph /  24.1 km/h 71 % 0.00 in /  0 mm
19:08 28.2 °F /  -2.1 °C 20.0 °F /  -6.7 °C 29.97 in /  1014.8 hPa NNW 8.3 mph /  13.4 km/h 10.4 mph /  16.7 km/h 71 % 0.00 in /  0 mm
19:18 28.0 °F /  -2.2 °C 20.1 °F /  -6.6 °C 29.97 in /  1014.8 hPa NW 8.7 mph /  14 km/h 14.0 mph /  22.5 km/h 72 % 0.00 in /  0 mm
19:23 27.9 °F /  -2.3 °C 20.0 °F /  -6.7 °C 29.97 in /  1014.8 hPa NE 8.5 mph /  13.7 km/h 15.0 mph /  24.1 km/h 72 % 0.00 in /  0 mm
19:28 27.8 °F /  -2.3 °C 20.3 °F /  -6.5 °C 29.98 in /  1015.1 hPa North 5.9 mph /  9.5 km/h 9.2 mph /  14.8 km/h 73 % 0.00 in /  0 mm
19:34 27.8 °F /  -2.3 °C 20.3 °F /  -6.5 °C 29.98 in /  1015.1 hPa NNE 6.6 mph /  10.6 km/h 9.2 mph /  14.8 km/h 73 % 0.00 in /  0 mm
19:42 27.6 °F /  -2.4 °C 19.8 °F /  -6.8 °C 29.99 in /  1015.5 hPa NNW 6.8 mph /  10.9 km/h 11.5 mph /  18.5 km/h 72 % 0.00 in /  0 mm
19:49 27.4 °F /  -2.6 °C 19.6 °F /  -6.9 °C 30.00 in /  1015.8 hPa North 7.3 mph /  11.7 km/h 12.7 mph /  20.4 km/h 72 % 0.00 in /  0 mm
19:54 27.2 °F /  -2.7 °C 19.0 °F /  -7.2 °C 30.00 in /  1015.8 hPa NNW 8.0 mph /  12.9 km/h 12.0 mph /  19.3 km/h 71 % 0.00 in /  0 mm
20:00 27.0 °F /  -2.8 °C 18.8 °F /  -7.3 °C 30.00 in /  1015.8 hPa NNE 6.5 mph /  10.5 km/h 11.5 mph /  18.5 km/h 71 % 0.00 in /  0 mm
20:05 26.9 °F /  -2.8 °C 18.7 °F /  -7.4 °C 30.00 in /  1015.8 hPa North 10.8 mph /  17.4 km/h 19.6 mph /  31.5 km/h 71 % 0.00 in /  0 mm
20:12 26.6 °F /  -3 °C 18.1 °F /  -7.7 °C 30.01 in /  1016.1 hPa WNW 5.7 mph /  9.2 km/h 21.9 mph /  35.2 km/h 70 % 0.00 in /  0 mm
20:19 26.4 °F /  -3.1 °C 18.3 °F /  -7.6 °C 30.01 in /  1016.1 hPa NNW 7.6 mph /  12.2 km/h 13.8 mph /  22.2 km/h 71 % 0.00 in /  0 mm
20:30 26.1 °F /  -3.3 °C 17.6 °F /  -8 °C 30.02 in /  1016.5 hPa NNW 7.6 mph /  12.2 km/h 14.0 mph /  22.5 km/h 70 % 0.00 in /  0 mm
20:38 25.8 °F /  -3.4 °C 17.4 °F /  -8.1 °C 30.03 in /  1016.8 hPa NNW 11.2 mph /  18 km/h 18.0 mph /  29 km/h 70 % 0.00 in /  0 mm
20:46 25.6 °F /  -3.6 °C 16.8 °F /  -8.4 °C 30.03 in /  1016.8 hPa North 8.0 mph /  12.9 km/h 20.0 mph /  32.2 km/h 69 % 0.00 in /  0 mm
20:54 25.3 °F /  -3.7 °C 16.9 °F /  -8.4 °C 30.04 in /  1017.2 hPa NNE 5.9 mph /  9.5 km/h 10.4 mph /  16.7 km/h 70 % 0.00 in /  0 mm
21:04 25.0 °F /  -3.9 °C 15.6 °F /  -9.1 °C 30.05 in /  1017.5 hPa NNW 6.8 mph /  10.9 km/h 12.7 mph /  20.4 km/h 67 % 0.00 in /  0 mm
21:23 24.2 °F /  -4.3 °C 14.5 °F /  -9.7 °C 30.06 in /  1017.8 hPa North 8.4 mph /  13.5 km/h 12.0 mph /  19.3 km/h 66 % 0.00 in /  0 mm
21:38 23.8 °F /  -4.6 °C 13.7 °F /  -10.2 °C 30.07 in /  1018.2 hPa NNW 6.1 mph /  9.8 km/h 11.5 mph /  18.5 km/h 65 % 0.00 in /  0 mm
21:56 23.4 °F /  -4.8 °C 14.0 °F /  -10 °C 30.08 in /  1018.5 hPa NNW 7.5 mph /  12.1 km/h 10.4 mph /  16.7 km/h 67 % 0.00 in /  0 mm
22:05 23.2 °F /  -4.9 °C 13.2 °F /  -10.4 °C 30.08 in /  1018.5 hPa NNW 6.6 mph /  10.6 km/h 13.8 mph /  22.2 km/h 65 % 0.00 in /  0 mm
22:10 23.0 °F /  -5 °C 12.3 °F /  -10.9 °C 30.08 in /  1018.5 hPa NNW 6.0 mph /  9.7 km/h 17.3 mph /  27.8 km/h 63 % 0.00 in /  0 mm
22:20 22.7 °F /  -5.2 °C 11.3 °F /  -11.5 °C 30.09 in /  1018.8 hPa NNW 10.3 mph /  16.6 km/h 17.3 mph /  27.8 km/h 61 % 0.00 in /  0 mm
22:28 22.5 °F /  -5.3 °C 11.1 °F /  -11.6 °C 30.09 in /  1018.8 hPa NNW 10.0 mph /  16.1 km/h 12.7 mph /  20.4 km/h 61 % 0.00 in /  0 mm
22:34 22.4 °F /  -5.3 °C 11.3 °F /  -11.5 °C 30.09 in /  1018.8 hPa North 6.0 mph /  9.7 km/h 8.1 mph /  13 km/h 62 % 0.00 in /  0 mm
22:39 22.3 °F /  -5.4 °C 11.2 °F /  -11.6 °C 30.10 in /  1019.2 hPa NW 4.3 mph /  6.9 km/h 12.0 mph /  19.3 km/h 62 % 0.00 in /  0 mm
22:44 22.2 °F /  -5.4 °C 11.5 °F /  -11.4 °C 30.11 in /  1019.5 hPa NW 5.0 mph /  8 km/h 9.2 mph /  14.8 km/h 63 % 0.00 in /  0 mm
22:55 22.0 °F /  -5.6 °C 11.0 °F /  -11.7 °C 30.12 in /  1019.9 hPa North 7.9 mph /  12.7 km/h 11.5 mph /  18.5 km/h 62 % 0.00 in /  0 mm
23:01 21.8 °F /  -5.7 °C 10.8 °F /  -11.8 °C 30.12 in /  1019.9 hPa NNW 2.8 mph /  4.5 km/h 6.9 mph /  11.1 km/h 62 % 0.00 in /  0 mm
23:10 21.6 °F /  -5.8 °C 10.6 °F /  -11.9 °C 30.13 in /  1020.2 hPa WNW 6.9 mph /  11.1 km/h 10.4 mph /  16.7 km/h 62 % 0.00 in /  0 mm
23:22 21.4 °F /  -5.9 °C 10.7 °F /  -11.8 °C 30.13 in /  1020.2 hPa NNW 6.5 mph /  10.5 km/h 11.5 mph /  18.5 km/h 63 % 0.00 in /  0 mm
23:27 21.4 °F /  -5.9 °C 10.4 °F /  -12 °C 30.13 in /  1020.2 hPa North 6.4 mph /  10.3 km/h 11.5 mph /  18.5 km/h 62 % 0.00 in /  0 mm
23:33 21.2 °F /  -6 °C 9.5 °F /  -12.5 °C 30.13 in /  1020.2 hPa NNE 7.9 mph /  12.7 km/h 17.0 mph /  27.4 km/h 60 % 0.00 in /  0 mm
23:43 21.0 °F /  -6.1 °C 7.7 °F /  -13.5 °C 30.14 in /  1020.5 hPa NNE 9.6 mph /  15.4 km/h 17.3 mph /  27.8 km/h 56 % 0.00 in /  0 mm
23:54 20.8 °F /  -6.2 °C 7.6 °F /  -13.6 °C 30.14 in /  1020.5 hPa North 6.6 mph /  10.6 km/h 13.8 mph /  22.2 km/h 56 % 0.00 in /  0 mm
Crab Meadow Weather
Compliments of Weather Underground - 2.25 mb

Script developed by  Jim McMurry - jmcmurry@mwt.net Adapted for the template by  Wim van der Kuil - Leuven-Template.eu

Lightning: The average number of deaths from lightning is more than 100 a year with several more deaths from lightning related fires. Lightning injuries account for 3-5 times than those of lightning deaths.